Time;durP1;ratioP1;P1;durP2;ratioP2;P2;SDS_P1;SDS_P2;PMS_P1;PMS_P2;Temp;Humidity;BMP_temperature;BMP_pressure;BME280_temperature;BME280_humidity;BME280_pressure;Samples;Min_cycle;Max_cycle;Signal;HPM_P1;HPM_P2
2021/07/26 00:01:53;;;;;;;4.05;2.00;;;;;;;;;;5034483;28;20072;-75
2021/07/26 00:04:19;;;;;;;4.15;2.20;;;;;;;;;;5034960;28;20033;-75
2021/07/26 00:06:46;;;;;;;4.18;2.10;;;;;;;;;;5033619;28;20026;-75
2021/07/26 00:09:12;;;;;;;4.43;2.22;;;;;;;;;;5035098;28;20515;-75
2021/07/26 00:11:38;;;;;;;3.28;2.30;;;;;;;;;;5034169;28;20021;-75
2021/07/26 00:14:05;;;;;;;3.63;2.20;;;;;;;;;;5053608;28;20048;-76
2021/07/26 00:16:31;;;;;;;4.82;2.72;;;;;;;;;;5049303;28;20075;-75
2021/07/26 00:18:57;;;;;;;6.03;2.65;;;;;;;;;;5034689;28;20436;-75
2021/07/26 00:21:23;;;;;;;4.47;2.75;;;;;;;;;;5034131;28;20496;-76
2021/07/26 00:23:49;;;;;;;4.18;2.38;;;;;;;;;;5034517;28;20033;-75
2021/07/26 00:26:16;;;;;;;3.65;2.25;;;;;;;;;;5033637;28;20028;-75
2021/07/26 00:28:43;;;;;;;5.10;2.78;;;;;;;;;;5054275;28;20092;-75
2021/07/26 00:31:09;;;;;;;4.65;2.88;;;;;;;;;;5053821;28;20028;-75
2021/07/26 00:34:06;;;;;;;3.90;2.28;;;;;;;;;;5054690;28;20368;-75
2021/07/26 00:36:32;;;;;;;5.72;2.90;;;;;;;;;;5047444;28;20396;-75
2021/07/26 00:38:58;;;;;;;5.18;2.42;;;;;;;;;;5016463;28;20029;-75
2021/07/26 00:41:24;;;;;;;3.13;2.05;;;;;;;;;;5033769;28;20129;-75
2021/07/26 00:43:50;;;;;;;5.30;2.63;;;;;;;;;;5034181;28;20061;-76
2021/07/26 00:46:16;;;;;;;4.35;2.22;;;;;;;;;;5034529;28;20101;-75
2021/07/26 00:48:43;;;;;;;3.58;2.95;;;;;;;;;;5023919;28;20036;-76
2021/07/26 00:51:09;;;;;;;4.07;2.70;;;;;;;;;;5015691;28;20022;-75
2021/07/26 00:53:35;;;;;;;3.60;2.35;;;;;;;;;;5053784;28;20032;-75
2021/07/26 00:56:02;;;;;;;5.40;2.97;;;;;;;;;;5054083;28;20025;-75
2021/07/26 00:58:28;;;;;;;5.95;3.00;;;;;;;;;;5053643;28;20078;-75
2021/07/26 01:00:55;;;;;;;5.15;2.55;;;;;;;;;;5049275;28;20037;-76
2021/07/26 01:03:22;;;;;;;5.68;2.90;;;;;;;;;;5033708;28;20034;-75
2021/07/26 01:05:48;;;;;;;6.93;3.10;;;;;;;;;;5033585;28;20024;-75
2021/07/26 01:08:14;;;;;;;4.70;2.88;;;;;;;;;;5033547;28;20026;-75
2021/07/26 01:10:40;;;;;;;3.85;2.67;;;;;;;;;;5033612;28;20443;-75
2021/07/26 01:13:06;;;;;;;6.10;2.97;;;;;;;;;;5015922;28;20136;-76
2021/07/26 01:15:32;;;;;;;3.88;2.88;;;;;;;;;;5015811;28;20061;-75
2021/07/26 01:18:25;;;;;;;6.28;3.08;;;;;;;;;;5050234;28;20082;-75
2021/07/26 01:20:55;;;;;;;7.10;2.60;;;;;;;;;;5053449;28;20021;-75
2021/07/26 01:23:22;;;;;;;3.95;2.88;;;;;;;;;;5053588;28;20029;-76
2021/07/26 01:25:48;;;;;;;4.57;3.03;;;;;;;;;;5053465;28;20420;-75
2021/07/26 01:28:15;;;;;;;4.35;3.33;;;;;;;;;;5037215;28;20025;-76
2021/07/26 01:30:42;;;;;;;7.03;3.33;;;;;;;;;;5015074;28;20444;-76
2021/07/26 01:33:09;;;;;;;4.72;2.85;;;;;;;;;;5033532;28;20029;-75
2021/07/26 01:35:35;;;;;;;4.43;3.15;;;;;;;;;;5032945;28;20052;-75
2021/07/26 01:38:01;;;;;;;5.63;3.28;;;;;;;;;;5015518;28;20026;-75
2021/07/26 01:40:28;;;;;;;3.33;2.80;;;;;;;;;;5033143;28;20484;-76
2021/07/26 01:43:02;;;;;;;7.38;3.13;;;;;;;;;;5033387;28;20175;-75
2021/07/26 01:45:28;;;;;;;7.90;3.30;;;;;;;;;;5015143;28;20488;-75
2021/07/26 01:47:58;;;;;;;5.60;2.97;;;;;;;;;;5015274;28;20025;-76
2021/07/26 01:50:24;;;;;;;4.55;3.15;;;;;;;;;;5033038;28;20052;-76
2021/07/26 01:52:50;;;;;;;4.32;3.10;;;;;;;;;;5047392;28;20017;-75
2021/07/26 01:55:16;;;;;;;4.78;2.72;;;;;;;;;;5052378;28;20033;-76
2021/07/26 01:57:43;;;;;;;7.25;3.40;;;;;;;;;;5052784;28;20492;-75
2021/07/26 02:00:09;;;;;;;4.43;2.80;;;;;;;;;;5034849;28;20024;-75
2021/07/26 02:02:38;;;;;;;4.80;3.20;;;;;;;;;;5052430;28;20025;-75
2021/07/26 02:05:05;;;;;;;4.35;2.80;;;;;;;;;;5052669;28;20108;-76
2021/07/26 02:07:31;;;;;;;4.78;3.00;;;;;;;;;;5034827;28;20167;-76
2021/07/26 02:09:57;;;;;;;8.57;3.20;;;;;;;;;;5052587;28;20053;-75
2021/07/26 02:12:23;;;;;;;4.72;3.40;;;;;;;;;;5052083;28;20405;-76
2021/07/26 02:14:49;;;;;;;3.92;3.28;;;;;;;;;;5052382;28;20476;-75
2021/07/26 02:17:16;;;;;;;4.85;3.13;;;;;;;;;;5041255;28;20036;-75
2021/07/26 02:19:42;;;;;;;5.53;3.20;;;;;;;;;;5032558;28;20064;-75
2021/07/26 02:22:08;;;;;;;4.82;3.38;;;;;;;;;;5032046;28;20029;-75
2021/07/26 02:24:34;;;;;;;5.78;3.40;;;;;;;;;;5032233;28;20077;-76
2021/07/26 02:27:00;;;;;;;6.22;3.50;;;;;;;;;;5037866;28;20024;-75
2021/07/26 02:29:26;;;;;;;6.30;3.42;;;;;;;;;;5052465;28;20029;-75
2021/07/26 02:31:53;;;;;;;4.88;3.03;;;;;;;;;;5034021;28;20025;-75
2021/07/26 02:34:19;;;;;;;9.35;3.85;;;;;;;;;;5052225;28;20028;-75
2021/07/26 02:36:45;;;;;;;5.00;3.20;;;;;;;;;;5052360;28;20025;-76
2021/07/26 02:39:11;;;;;;;8.82;3.97;;;;;;;;;;5052175;28;20036;-75
2021/07/26 02:41:37;;;;;;;3.97;3.13;;;;;;;;;;5054704;28;20035;-75
2021/07/26 02:44:03;;;;;;;5.97;3.75;;;;;;;;;;5056360;28;20035;-76
2021/07/26 02:46:29;;;;;;;5.25;3.40;;;;;;;;;;5038397;28;20021;-76
2021/07/26 02:48:55;;;;;;;6.82;3.47;;;;;;;;;;5056255;28;20048;-75
2021/07/26 02:51:21;;;;;;;5.13;3.33;;;;;;;;;;5052925;28;20400;-75
2021/07/26 02:53:47;;;;;;;7.05;3.45;;;;;;;;;;5018443;28;20033;-75
2021/07/26 02:56:13;;;;;;;6.75;3.78;;;;;;;;;;5036028;28;20555;-75
2021/07/26 02:58:39;;;;;;;6.13;3.58;;;;;;;;;;5036530;28;20040;-75
2021/07/26 03:01:09;;;;;;;7.55;3.92;;;;;;;;;;5035609;28;20033;-76
2021/07/26 03:03:35;;;;;;;6.70;3.78;;;;;;;;;;5036388;28;20034;-75
2021/07/26 03:06:01;;;;;;;5.20;3.33;;;;;;;;;;5036171;28;20021;-75
2021/07/26 03:08:29;;;;;;;7.07;3.92;;;;;;;;;;5036292;28;20038;-75
2021/07/26 03:11:00;;;;;;;7.22;3.63;;;;;;;;;;5018152;28;20021;-75
2021/07/26 03:13:26;;;;;;;7.68;4.28;;;;;;;;;;5035856;28;20401;-75
2021/07/26 03:15:52;;;;;;;5.55;3.80;;;;;;;;;;5035706;28;20109;-75
2021/07/26 03:18:18;;;;;;;6.53;3.63;;;;;;;;;;5034156;28;20060;-75
2021/07/26 03:20:46;;;;;;;5.70;3.88;;;;;;;;;;5035924;28;20511;-75
2021/07/26 03:23:12;;;;;;;6.20;3.45;;;;;;;;;;5035440;28;20029;-75
2021/07/26 03:25:40;;;;;;;5.78;4.22;;;;;;;;;;5035422;28;20053;-75
2021/07/26 03:28:06;;;;;;;5.45;4.10;;;;;;;;;;5035434;28;20025;-75
2021/07/26 03:30:32;;;;;;;5.85;3.78;;;;;;;;;;5035434;28;20040;-75
2021/07/26 03:32:58;;;;;;;8.93;4.07;;;;;;;;;;5035600;28;20518;-76
2021/07/26 03:35:25;;;;;;;6.60;3.40;;;;;;;;;;5035444;28;20030;-75
2021/07/26 03:37:52;;;;;;;5.55;3.63;;;;;;;;;;5035304;28;20037;-75
2021/07/26 03:40:19;;;;;;;5.28;3.67;;;;;;;;;;5017670;28;20034;-75
2021/07/26 03:42:45;;;;;;;6.63;3.55;;;;;;;;;;5035112;28;20037;-75
2021/07/26 03:45:12;;;;;;;7.93;4.00;;;;;;;;;;5035617;28;20092;-75
2021/07/26 03:47:38;;;;;;;7.25;3.70;;;;;;;;;;5034993;28;20025;-76
2021/07/26 03:50:05;;;;;;;6.43;3.90;;;;;;;;;;5035398;28;20036;-76
2021/07/26 03:52:31;;;;;;;5.55;3.75;;;;;;;;;;5025100;28;20388;-76
2021/07/26 03:54:58;;;;;;;7.53;4.13;;;;;;;;;;5033597;28;20030;-75
2021/07/26 03:57:24;;;;;;;5.75;3.83;;;;;;;;;;5024964;28;20032;-75
2021/07/26 03:59:50;;;;;;;6.40;3.92;;;;;;;;;;5023519;28;20033;-75
2021/07/26 04:02:16;;;;;;;5.85;3.70;;;;;;;;;;5014297;28;20034;-76
2021/07/26 04:04:43;;;;;;;8.80;3.70;;;;;;;;;;5014295;28;20044;-75
2021/07/26 04:07:17;;;;;;;6.95;3.70;;;;;;;;;;5014451;28;20396;-76
2021/07/26 04:09:45;;;;;;;4.97;3.58;;;;;;;;;;5015016;28;20034;-75
2021/07/26 04:12:18;;;;;;;8.35;3.97;;;;;;;;;;5014298;28;20374;-76
2021/07/26 04:14:44;;;;;;;8.23;3.80;;;;;;;;;;5013650;28;20034;-76
2021/07/26 04:17:10;;;;;;;6.32;4.35;;;;;;;;;;5025005;28;20029;-76
2021/07/26 04:19:36;;;;;;;8.30;3.97;;;;;;;;;;5034681;28;20087;-75
2021/07/26 04:22:02;;;;;;;7.13;4.22;;;;;;;;;;5033919;28;20033;-76
2021/07/26 04:24:28;;;;;;;6.57;4.25;;;;;;;;;;5034703;28;20030;-76
2021/07/26 04:26:54;;;;;;;9.10;4.18;;;;;;;;;;5018069;28;20075;-75
2021/07/26 04:29:20;;;;;;;6.57;4.30;;;;;;;;;;5033599;28;20021;-75
2021/07/26 04:31:50;;;;;;;8.13;4.45;;;;;;;;;;5032630;28;20060;-76
2021/07/26 04:34:16;;;;;;;7.82;4.53;;;;;;;;;;5034532;28;20071;-75
2021/07/26 04:36:42;;;;;;;7.88;4.65;;;;;;;;;;5032954;28;20045;-76
2021/07/26 04:39:09;;;;;;;6.32;4.18;;;;;;;;;;5034172;28;20051;-76
2021/07/26 04:41:36;;;;;;;8.85;4.70;;;;;;;;;;5033856;28;20038;-76
2021/07/26 04:44:02;;;;;;;6.90;4.53;;;;;;;;;;5034481;28;20022;-75
2021/07/26 04:46:28;;;;;;;9.95;4.47;;;;;;;;;;5034163;28;20026;-76
2021/07/26 04:48:54;;;;;;;5.72;3.70;;;;;;;;;;5033953;28;20021;-76
2021/07/26 04:51:20;;;;;;;4.80;3.60;;;;;;;;;;5033522;28;20022;-75
2021/07/26 04:53:46;;;;;;;8.15;4.22;;;;;;;;;;5034141;28;20037;-76
2021/07/26 04:56:12;;;;;;;9.60;4.22;;;;;;;;;;5034034;28;20029;-75
2021/07/26 04:58:38;;;;;;;8.00;4.60;;;;;;;;;;5033940;28;20030;-75
2021/07/26 05:01:04;;;;;;;9.98;4.43;;;;;;;;;;5033543;28;20488;-75
2021/07/26 05:03:30;;;;;;;9.05;4.40;;;;;;;;;;5033511;28;20040;-75
2021/07/26 05:05:56;;;;;;;7.00;4.03;;;;;;;;;;5016319;28;20136;-75
2021/07/26 05:08:22;;;;;;;8.32;4.55;;;;;;;;;;5033848;28;20018;-75
2021/07/26 05:10:49;;;;;;;6.30;3.97;;;;;;;;;;5033328;28;20420;-76
2021/07/26 05:13:15;;;;;;;9.15;4.68;;;;;;;;;;5033447;28;20056;-75
2021/07/26 05:15:41;;;;;;;11.52;4.60;;;;;;;;;;5016018;28;20128;-75
2021/07/26 05:18:07;;;;;;;11.50;4.70;;;;;;;;;;5033320;28;20025;-75
2021/07/26 05:20:34;;;;;;;6.45;4.32;;;;;;;;;;5032426;28;20044;-75
2021/07/26 05:23:00;;;;;;;7.38;4.70;;;;;;;;;;5032196;28;20060;-75
2021/07/26 05:25:26;;;;;;;6.15;4.13;;;;;;;;;;5033580;28;20021;-75
2021/07/26 05:27:52;;;;;;;7.05;4.18;;;;;;;;;;5033797;28;20101;-76
2021/07/26 05:30:18;;;;;;;8.60;4.40;;;;;;;;;;5033797;28;20079;-75
2021/07/26 05:32:44;;;;;;;6.85;4.53;;;;;;;;;;5033266;28;20029;-75
2021/07/26 05:35:10;;;;;;;8.50;4.20;;;;;;;;;;5033447;28;20031;-76
2021/07/26 05:37:37;;;;;;;8.20;4.57;;;;;;;;;;5033460;28;20366;-76
2021/07/26 05:40:03;;;;;;;8.50;4.63;;;;;;;;;;5033203;28;20112;-75
2021/07/26 05:42:29;;;;;;;8.43;5.30;;;;;;;;;;5033067;28;20021;-75
2021/07/26 05:44:56;;;;;;;11.05;4.80;;;;;;;;;;5033061;28;20032;-75
2021/07/26 05:47:22;;;;;;;7.93;4.53;;;;;;;;;;5033239;28;20083;-75
2021/07/26 05:49:48;;;;;;;6.85;4.22;;;;;;;;;;5032883;28;20025;-75
2021/07/26 05:52:14;;;;;;;7.72;5.00;;;;;;;;;;5032176;28;20026;-75
2021/07/26 05:54:40;;;;;;;9.70;5.38;;;;;;;;;;5032614;28;20428;-76
2021/07/26 05:57:12;;;;;;;6.57;4.43;;;;;;;;;;5033065;28;20032;-75
2021/07/26 05:59:38;;;;;;;10.93;4.57;;;;;;;;;;5033011;28;20052;-75
2021/07/26 06:02:04;;;;;;;8.20;4.82;;;;;;;;;;5030936;28;20107;-75
2021/07/26 06:04:30;;;;;;;12.13;5.43;;;;;;;;;;5032551;28;20113;-76
2021/07/26 06:06:58;;;;;;;8.15;4.78;;;;;;;;;;5032793;28;20045;-75
2021/07/26 06:09:24;;;;;;;7.85;4.78;;;;;;;;;;5032621;28;20021;-75
2021/07/26 06:11:51;;;;;;;10.52;5.03;;;;;;;;;;5032158;28;20025;-76
2021/07/26 06:14:18;;;;;;;8.60;5.00;;;;;;;;;;5050818;28;20409;-75
2021/07/26 06:16:48;;;;;;;11.75;4.85;;;;;;;;;;5027549;28;20457;-75
2021/07/26 06:19:15;;;;;;;7.20;4.93;;;;;;;;;;5032702;28;20512;-75
2021/07/26 06:21:45;;;;;;;10.93;4.78;;;;;;;;;;5032117;28;20552;-76
2021/07/26 06:24:12;;;;;;;8.80;5.20;;;;;;;;;;5032712;28;20101;-76
2021/07/26 06:26:38;;;;;;;8.30;5.10;;;;;;;;;;5035237;28;20057;-76
2021/07/26 06:29:04;;;;;;;7.82;5.00;;;;;;;;;;5052334;28;20017;-76
2021/07/26 06:31:32;;;;;;;8.75;5.38;;;;;;;;;;5052019;28;20025;-77
2021/07/26 06:33:59;;;;;;;8.35;4.95;;;;;;;;;;5034299;28;20021;-76
2021/07/26 06:36:25;;;;;;;11.10;5.50;;;;;;;;;;5034512;28;20162;-76
2021/07/26 06:38:51;;;;;;;9.27;5.00;;;;;;;;;;5052144;28;20028;-76
2021/07/26 06:41:17;;;;;;;8.48;4.97;;;;;;;;;;5051654;28;20033;-76
2021/07/26 06:43:43;;;;;;;7.13;5.10;;;;;;;;;;5052144;28;20407;-76
2021/07/26 06:46:09;;;;;;;7.53;5.00;;;;;;;;;;5034202;28;20487;-76
2021/07/26 06:48:35;;;;;;;9.10;4.97;;;;;;;;;;5051920;28;20025;-77
2021/07/26 06:51:04;;;;;;;7.85;4.72;;;;;;;;;;5051377;28;20032;-76
2021/07/26 06:53:32;;;;;;;9.30;4.93;;;;;;;;;;5012419;28;20026;-76
2021/07/26 06:56:03;;;;;;;7.20;5.07;;;;;;;;;;5012646;28;20041;-76
2021/07/26 06:58:29;;;;;;;7.00;4.70;;;;;;;;;;5012369;28;20109;-76
2021/07/26 07:00:55;;;;;;;7.57;4.85;;;;;;;;;;4994291;28;20033;-77
2021/07/26 07:03:21;;;;;;;9.43;5.05;;;;;;;;;;5011987;28;20037;-76
2021/07/26 07:05:47;;;;;;;8.77;5.15;;;;;;;;;;5010886;28;20053;-77
2021/07/26 07:08:13;;;;;;;10.75;4.88;;;;;;;;;;5029332;28;20043;-76
2021/07/26 07:10:39;;;;;;;10.82;5.13;;;;;;;;;;5027902;28;20081;-76
2021/07/26 07:13:06;;;;;;;9.95;4.50;;;;;;;;;;5027375;28;20061;-76
2021/07/26 07:15:33;;;;;;;8.73;4.75;;;;;;;;;;5003438;28;20504;-76
2021/07/26 07:17:59;;;;;;;9.90;4.80;;;;;;;;;;5010386;28;20033;-76
2021/07/26 07:20:26;;;;;;;7.30;4.22;;;;;;;;;;4999972;28;20036;-76
2021/07/26 07:22:52;;;;;;;7.68;4.93;;;;;;;;;;5011582;28;20500;-76
2021/07/26 07:25:19;;;;;;;11.90;4.88;;;;;;;;;;5010761;28;20030;-76
2021/07/26 07:27:45;;;;;;;7.20;4.68;;;;;;;;;;5013812;28;20025;-76
2021/07/26 07:30:11;;;;;;;8.20;4.55;;;;;;;;;;5015163;28;20030;-75
2021/07/26 07:32:37;;;;;;;6.60;4.50;;;;;;;;;;4993290;28;20619;-75
2021/07/26 07:35:04;;;;;;;11.13;5.07;;;;;;;;;;5014131;28;20121;-75
2021/07/26 07:37:30;;;;;;;11.07;5.90;;;;;;;;;;5019684;28;20100;-75
2021/07/26 07:39:56;;;;;;;10.98;5.00;;;;;;;;;;5015319;28;20033;-76
2021/07/26 07:42:22;;;;;;;9.10;5.07;;;;;;;;;;5013002;28;20025;-75
2021/07/26 07:44:49;;;;;;;7.65;5.28;;;;;;;;;;5014535;28;20397;-75
2021/07/26 07:47:15;;;;;;;9.13;5.10;;;;;;;;;;5014433;28;20029;-76
2021/07/26 07:49:42;;;;;;;7.22;5.18;;;;;;;;;;5014059;28;20030;-76
2021/07/26 07:52:11;;;;;;;12.60;4.80;;;;;;;;;;5009939;28;20481;-76
2021/07/26 07:54:37;;;;;;;7.15;5.03;;;;;;;;;;5009499;28;20121;-76
2021/07/26 07:57:04;;;;;;;7.28;4.65;;;;;;;;;;5004253;28;20493;-76
2021/07/26 07:59:31;;;;;;;6.20;5.13;;;;;;;;;;5029622;28;20026;-76
2021/07/26 08:01:57;;;;;;;8.77;5.32;;;;;;;;;;5013133;28;20051;-76
2021/07/26 08:04:23;;;;;;;10.82;4.90;;;;;;;;;;5014889;28;20456;-76
2021/07/26 08:06:50;;;;;;;9.80;5.32;;;;;;;;;;5014953;28;20481;-76
2021/07/26 08:09:16;;;;;;;10.07;5.03;;;;;;;;;;5011392;28;20117;-76
2021/07/26 08:11:42;;;;;;;12.35;5.28;;;;;;;;;;5006944;28;20409;-76
2021/07/26 08:14:08;;;;;;;8.70;5.10;;;;;;;;;;5021161;28;20046;-76
2021/07/26 08:16:37;;;;;;;9.25;5.75;;;;;;;;;;5014554;28;20026;-76
2021/07/26 08:19:03;;;;;;;7.30;5.13;;;;;;;;;;5014416;28;20030;-76
2021/07/26 08:21:29;;;;;;;8.60;5.07;;;;;;;;;;5012594;28;20021;-75
2021/07/26 08:23:55;;;;;;;10.48;5.00;;;;;;;;;;5010578;28;20034;-75
2021/07/26 08:26:21;;;;;;;9.90;4.93;;;;;;;;;;5014474;28;20026;-76
2021/07/26 08:28:48;;;;;;;12.93;5.28;;;;;;;;;;5014288;28;20075;-75
2021/07/26 08:31:14;;;;;;;26.77;5.43;;;;;;;;;;5012159;28;20018;-75
2021/07/26 08:33:40;;;;;;;14.70;5.00;;;;;;;;;;5012827;28;20030;-74
2021/07/26 08:36:06;;;;;;;12.75;4.65;;;;;;;;;;4996156;28;20029;-75
2021/07/26 08:38:32;;;;;;;12.35;5.32;;;;;;;;;;5013253;28;20033;-74
2021/07/26 08:40:58;;;;;;;11.05;5.38;;;;;;;;;;5014080;28;20030;-75
2021/07/26 08:43:24;;;;;;;8.00;4.93;;;;;;;;;;5013538;28;20218;-75
2021/07/26 08:45:51;;;;;;;10.02;5.20;;;;;;;;;;5013319;28;20026;-75
2021/07/26 08:48:17;;;;;;;9.55;5.15;;;;;;;;;;4993346;28;20033;-74
2021/07/26 08:50:44;;;;;;;9.23;5.03;;;;;;;;;;5013149;28;20434;-75
2021/07/26 08:53:11;;;;;;;7.65;4.70;;;;;;;;;;5012605;28;20068;-75
2021/07/26 08:55:37;;;;;;;6.82;3.97;;;;;;;;;;5011951;28;20026;-75
2021/07/26 08:58:04;;;;;;;7.85;4.30;;;;;;;;;;5012836;28;20054;-74
2021/07/26 09:00:30;;;;;;;10.77;4.45;;;;;;;;;;5012572;28;20084;-75
2021/07/26 09:02:56;;;;;;;5.07;3.60;;;;;;;;;;5012097;28;20030;-75
2021/07/26 09:05:23;;;;;;;7.55;3.85;;;;;;;;;;5012350;28;20079;-75
2021/07/26 09:07:49;;;;;;;6.47;3.80;;;;;;;;;;5013074;28;20121;-75
2021/07/26 09:10:25;;;;;;;8.23;3.70;;;;;;;;;;5011633;28;20057;-75
2021/07/26 09:12:55;;;;;;;5.93;2.90;;;;;;;;;;5004504;28;20049;-75
2021/07/26 09:15:25;;;;;;;5.45;3.33;;;;;;;;;;5028735;28;20018;-75
2021/07/26 09:17:52;;;;;;;6.80;3.67;;;;;;;;;;5020493;28;20648;-75
2021/07/26 09:20:24;;;;;;;5.10;3.47;;;;;;;;;;5028728;28;20021;-74
2021/07/26 09:22:51;;;;;;;4.85;3.78;;;;;;;;;;5020536;28;20022;-75
2021/07/26 09:25:21;;;;;;;6.85;3.88;;;;;;;;;;5019935;28;20073;-75
2021/07/26 09:28:07;;;;;;;5.57;3.28;;;;;;;;;;5011024;28;20034;-75
2021/07/26 09:30:37;;;;;;;5.40;3.33;;;;;;;;;;5008974;28;20072;-75
2021/07/26 09:33:04;;;;;;;6.95;3.88;;;;;;;;;;5011895;28;20037;-74
2021/07/26 09:35:30;;;;;;;7.20;4.25;;;;;;;;;;5012489;28;20021;-75
2021/07/26 09:38:00;;;;;;;5.70;3.55;;;;;;;;;;5013065;28;20025;-75
2021/07/26 09:40:32;;;;;;;4.57;3.67;;;;;;;;;;5003327;28;20075;-75
2021/07/26 09:43:13;;;;;;;4.03;2.97;;;;;;;;;;5012845;28;20071;-74
2021/07/26 09:45:41;;;;;;;4.78;3.55;;;;;;;;;;5011274;28;20021;-74
2021/07/26 09:48:09;;;;;;;3.97;3.22;;;;;;;;;;5008712;28;20026;-75
2021/07/26 09:50:36;;;;;;;5.18;3.15;;;;;;;;;;5012491;28;20069;-75
2021/07/26 09:53:09;;;;;;;5.50;2.85;;;;;;;;;;5012039;28;20025;-75
2021/07/26 09:55:36;;;;;;;4.68;3.45;;;;;;;;;;5012092;28;20165;-75
2021/07/26 09:58:02;;;;;;;5.82;3.25;;;;;;;;;;5010819;28;20034;-74
2021/07/26 10:00:30;;;;;;;3.88;2.83;;;;;;;;;;5012396;28;20022;-74
2021/07/26 10:02:56;;;;;;;4.07;2.78;;;;;;;;;;5011765;28;20080;-75
2021/07/26 10:05:31;;;;;;;6.40;2.55;;;;;;;;;;5011434;28;20109;-75
2021/07/26 10:07:57;;;;;;;4.07;2.92;;;;;;;;;;5012636;28;20389;-75
2021/07/26 10:10:23;;;;;;;6.00;3.67;;;;;;;;;;5011710;28;20104;-74
2021/07/26 10:12:51;;;;;;;3.45;2.70;;;;;;;;;;5017041;28;20115;-75
2021/07/26 10:15:18;;;;;;;7.43;3.67;;;;;;;;;;5032715;28;20137;-74
2021/07/26 10:17:45;;;;;;;4.40;3.03;;;;;;;;;;5013116;28;20050;-74
2021/07/26 10:20:14;;;;;;;6.75;3.15;;;;;;;;;;5030962;28;20031;-74
2021/07/26 10:22:42;;;;;;;4.80;3.35;;;;;;;;;;5031393;28;20871;-75
2021/07/26 10:25:19;;;;;;;6.53;3.83;;;;;;;;;;5027022;28;20526;-74
2021/07/26 10:27:45;;;;;;;4.18;2.92;;;;;;;;;;5031747;28;20034;-74
2021/07/26 10:30:30;;;;;;;4.13;2.90;;;;;;;;;;5029834;28;20016;-74
2021/07/26 10:33:02;;;;;;;7.38;3.20;;;;;;;;;;5030389;28;20488;-75
2021/07/26 10:35:38;;;;;;;7.35;3.20;;;;;;;;;;5027772;28;20040;-75
2021/07/26 10:38:05;;;;;;;4.82;3.00;;;;;;;;;;5012123;28;20029;-75
2021/07/26 10:40:32;;;;;;;4.07;2.90;;;;;;;;;;5036063;28;20049;-75
2021/07/26 10:43:03;;;;;;;4.13;3.53;;;;;;;;;;5013062;28;20033;-75
2021/07/26 10:45:32;;;;;;;10.52;3.85;;;;;;;;;;5031302;28;20392;-75
2021/07/26 10:48:17;;;;;;;3.65;3.00;;;;;;;;;;5011445;28;20029;-74
2021/07/26 10:50:44;;;;;;;3.97;3.08;;;;;;;;;;5011361;28;20084;-75
2021/07/26 10:53:10;;;;;;;4.00;3.03;;;;;;;;;;5012048;28;20037;-75
2021/07/26 10:55:55;;;;;;;4.32;3.13;;;;;;;;;;5030408;28;20104;-75
2021/07/26 10:58:54;;;;;;;4.03;2.90;;;;;;;;;;5031644;28;20559;-75
2021/07/26 11:01:20;;;;;;;7.28;3.05;;;;;;;;;;4991886;28;20082;-74
2021/07/26 11:03:46;;;;;;;4.22;3.15;;;;;;;;;;5024460;28;20026;-75
2021/07/26 11:06:32;;;;;;;4.18;3.20;;;;;;;;;;5034043;28;20022;-74
2021/07/26 11:09:17;;;;;;;6.47;3.10;;;;;;;;;;5034801;28;20112;-75
2021/07/26 11:11:44;;;;;;;4.63;3.10;;;;;;;;;;5039434;28;20024;-75
2021/07/26 11:14:11;;;;;;;4.75;2.78;;;;;;;;;;5037588;28;20577;-75
2021/07/26 11:16:58;;;;;;;5.00;2.95;;;;;;;;;;5050196;28;20037;-75
2021/07/26 11:19:30;;;;;;;4.80;3.33;;;;;;;;;;5035459;28;20029;-75
2021/07/26 11:21:56;;;;;;;3.22;2.92;;;;;;;;;;5035115;28;20061;-75
2021/07/26 11:24:42;;;;;;;3.38;2.83;;;;;;;;;;5035019;28;20045;-75
2021/07/26 11:27:09;;;;;;;5.22;2.80;;;;;;;;;;5031259;28;20029;-75
2021/07/26 11:29:35;;;;;;;4.25;3.17;;;;;;;;;;5025897;28;20025;-75
2021/07/26 11:32:02;;;;;;;4.32;3.00;;;;;;;;;;5016141;28;20029;-75
2021/07/26 11:34:28;;;;;;;5.82;3.20;;;;;;;;;;5034507;28;20030;-75
2021/07/26 11:37:02;;;;;;;5.88;3.70;;;;;;;;;;5034961;28;20040;-74
2021/07/26 11:39:43;;;;;;;5.40;3.35;;;;;;;;;;5034780;28;20025;-75
2021/07/26 11:42:09;;;;;;;5.13;3.00;;;;;;;;;;5033143;28;20033;-75
2021/07/26 11:44:35;;;;;;;3.80;2.97;;;;;;;;;;5034856;28;20036;-74
2021/07/26 11:47:02;;;;;;;5.28;3.10;;;;;;;;;;5028177;28;20029;-75
2021/07/26 11:49:28;;;;;;;3.42;2.97;;;;;;;;;;5022019;28;20615;-74
2021/07/26 11:52:09;;;;;;;6.40;3.75;;;;;;;;;;5033799;28;20044;-74
2021/07/26 11:54:35;;;;;;;6.43;3.00;;;;;;;;;;5013189;28;20030;-74
2021/07/26 11:57:05;;;;;;;6.35;4.68;;;;;;;;;;5022172;28;20466;-74
2021/07/26 11:59:34;;;;;;;5.07;3.45;;;;;;;;;;5019771;28;20041;-75
2021/07/26 12:02:04;;;;;;;7.60;5.13;;;;;;;;;;5010683;28;20544;-75
2021/07/26 12:04:30;;;;;;;10.50;7.53;;;;;;;;;;5015864;28;20028;-75
2021/07/26 12:06:56;;;;;;;6.75;4.00;;;;;;;;;;5033555;28;20037;-75
2021/07/26 12:09:22;;;;;;;4.43;3.08;;;;;;;;;;5033269;28;20021;-75
2021/07/26 12:11:48;;;;;;;4.75;3.78;;;;;;;;;;5031878;28;20029;-75
2021/07/26 12:14:41;;;;;;;5.90;3.20;;;;;;;;;;5014956;28;20547;-75
2021/07/26 12:17:08;;;;;;;5.55;3.20;;;;;;;;;;5020183;28;20544;-75
2021/07/26 12:19:35;;;;;;;4.60;3.10;;;;;;;;;;5033982;28;20052;-75
2021/07/26 12:22:21;;;;;;;4.13;3.10;;;;;;;;;;5032960;28;20029;-75
2021/07/26 12:24:54;;;;;;;3.55;2.95;;;;;;;;;;5026379;28;20028;-75
2021/07/26 12:27:29;;;;;;;9.45;3.65;;;;;;;;;;5038068;28;20049;-75
2021/07/26 12:29:55;;;;;;;4.72;3.20;;;;;;;;;;5053442;28;20432;-75
2021/07/26 12:32:21;;;;;;;7.32;3.42;;;;;;;;;;5036187;28;20124;-75
2021/07/26 12:35:06;;;;;;;6.75;3.28;;;;;;;;;;5041654;28;20064;-75
2021/07/26 12:37:32;;;;;;;8.13;3.08;;;;;;;;;;5040994;28;20040;-74
2021/07/26 12:40:11;;;;;;;5.20;2.80;;;;;;;;;;5038482;28;20110;-75
2021/07/26 12:42:37;;;;;;;6.95;3.05;;;;;;;;;;5037450;28;20025;-74
2021/07/26 12:45:25;;;;;;;4.97;2.58;;;;;;;;;;5052227;28;20120;-74
2021/07/26 12:47:53;;;;;;;4.82;3.20;;;;;;;;;;5048209;28;20021;-74
2021/07/26 12:50:19;;;;;;;3.80;2.83;;;;;;;;;;5039332;28;20239;-74
2021/07/26 12:52:45;;;;;;;7.53;3.33;;;;;;;;;;5035387;28;20553;-74
2021/07/26 12:55:17;;;;;;;3.70;2.67;;;;;;;;;;5034263;28;20061;-74
2021/07/26 12:57:44;;;;;;;6.90;3.28;;;;;;;;;;5051931;28;20116;-74
2021/07/26 13:00:10;;;;;;;5.13;2.80;;;;;;;;;;5032066;28;20044;-74
2021/07/26 13:02:39;;;;;;;6.00;2.70;;;;;;;;;;5036263;28;20030;-74
2021/07/26 13:05:06;;;;;;;6.10;2.78;;;;;;;;;;5039850;28;20128;-74
2021/07/26 13:07:32;;;;;;;4.78;2.80;;;;;;;;;;5033024;28;20025;-74
2021/07/26 13:09:58;;;;;;;7.10;2.22;;;;;;;;;;5029946;28;20029;-74
2021/07/26 13:12:24;;;;;;;4.45;2.85;;;;;;;;;;5029467;28;20037;-74
2021/07/26 13:14:50;;;;;;;8.20;2.97;;;;;;;;;;5024210;28;20037;-74
2021/07/26 13:17:17;;;;;;;4.10;3.03;;;;;;;;;;5012215;28;20029;-74
2021/07/26 13:19:43;;;;;;;4.05;2.97;;;;;;;;;;5021341;28;20056;-74
2021/07/26 13:22:09;;;;;;;3.50;2.70;;;;;;;;;;5014381;28;20026;-75
2021/07/26 13:24:35;;;;;;;4.05;2.70;;;;;;;;;;5026730;28;20040;-74
2021/07/26 13:27:02;;;;;;;3.35;2.63;;;;;;;;;;5014643;28;20538;-74
2021/07/26 13:29:28;;;;;;;6.43;3.20;;;;;;;;;;5018884;28;20080;-74
2021/07/26 13:31:54;;;;;;;5.20;2.95;;;;;;;;;;5014878;28;20026;-74
2021/07/26 13:34:20;;;;;;;3.47;2.60;;;;;;;;;;5021642;28;20076;-75
2021/07/26 13:36:46;;;;;;;3.72;2.90;;;;;;;;;;5016197;28;20030;-74
2021/07/26 13:39:14;;;;;;;4.00;2.95;;;;;;;;;;5013295;28;20083;-74
2021/07/26 13:41:41;;;;;;;7.40;2.80;;;;;;;;;;5029890;28;20022;-75
2021/07/26 13:44:07;;;;;;;5.03;3.03;;;;;;;;;;5018171;28;20069;-73
2021/07/26 13:46:33;;;;;;;4.43;2.30;;;;;;;;;;5013125;28;20037;-73
2021/07/26 13:49:00;;;;;;;4.47;2.80;;;;;;;;;;5011460;28;20067;-74
2021/07/26 13:51:26;;;;;;;7.72;3.03;;;;;;;;;;5019572;28;20014;-75
2021/07/26 13:53:52;;;;;;;4.45;2.78;;;;;;;;;;5014115;28;20110;-75
2021/07/26 13:56:18;;;;;;;6.63;3.03;;;;;;;;;;5010593;28;20029;-74
2021/07/26 13:58:44;;;;;;;5.97;2.72;;;;;;;;;;5015151;28;20140;-75
2021/07/26 14:01:11;;;;;;;4.43;3.10;;;;;;;;;;5008944;28;20027;-75
2021/07/26 14:03:37;;;;;;;5.65;2.90;;;;;;;;;;5010635;28;20037;-75
2021/07/26 14:06:03;;;;;;;5.70;3.00;;;;;;;;;;5014004;28;20018;-75
2021/07/26 14:08:29;;;;;;;5.93;2.60;;;;;;;;;;5014559;28;20021;-74
2021/07/26 14:10:55;;;;;;;4.68;2.78;;;;;;;;;;5014696;28;20037;-74
2021/07/26 14:13:21;;;;;;;2.92;2.60;;;;;;;;;;5027700;28;20049;-74
2021/07/26 14:15:47;;;;;;;3.97;2.80;;;;;;;;;;5030034;28;20025;-74
2021/07/26 14:18:16;;;;;;;6.18;3.00;;;;;;;;;;5029533;28;20042;-75
2021/07/26 14:20:42;;;;;;;3.95;2.42;;;;;;;;;;5033068;28;20075;-74
2021/07/26 14:23:08;;;;;;;3.67;2.55;;;;;;;;;;5039000;28;20036;-74
2021/07/26 14:25:35;;;;;;;5.10;2.70;;;;;;;;;;5039751;28;20022;-74
2021/07/26 14:28:01;;;;;;;3.58;2.60;;;;;;;;;;5013394;28;20337;-74
2021/07/26 14:30:27;;;;;;;4.50;2.20;;;;;;;;;;5030311;28;20026;-74
2021/07/26 14:32:53;;;;;;;3.15;2.30;;;;;;;;;;5013078;28;20468;-74
2021/07/26 14:35:19;;;;;;;3.15;2.35;;;;;;;;;;5030645;28;20393;-74
2021/07/26 14:37:47;;;;;;;5.00;2.45;;;;;;;;;;5009634;28;20040;-74
2021/07/26 14:40:13;;;;;;;13.05;2.63;;;;;;;;;;5038503;28;20515;-75
2021/07/26 14:42:40;;;;;;;3.42;2.60;;;;;;;;;;5032009;28;20036;-75
2021/07/26 14:45:09;;;;;;;3.75;2.30;;;;;;;;;;5041459;28;20086;-75